Time;durP1;ratioP1;P1;durP2;ratioP2;P2;SDS_P1;SDS_P2;PMS_P1;PMS_P2;Temp;Humidity;BMP_temperature;BMP_pressure;BME280_temperature;BME280_humidity;BME280_pressure;Samples;Min_cycle;Max_cycle;Signal;HPM_P1;HPM_P2
2024/03/07 00:01:53;;;;;;;29.38;12.02;;;;;;;;;;6201760;28;20110;-77
2024/03/07 00:04:54;;;;;;;27.48;12.57;;;;;;;;;;6203993;28;20054;-80
2024/03/07 00:07:58;;;;;;;29.50;11.70;;;;;;;;;;6180160;28;20050;-82
2024/03/07 00:10:59;;;;;;;26.08;12.18;;;;;;;;;;6176795;28;21872;-82
2024/03/07 00:14:01;;;;;;;29.33;11.80;;;;;;;;;;6183929;28;20050;-81
2024/03/07 00:17:03;;;;;;;30.40;12.07;;;;;;;;;;6183549;28;20416;-79
2024/03/07 00:20:09;;;;;;;32.92;12.30;;;;;;;;;;6182679;28;20058;-82
2024/03/07 00:23:11;;;;;;;26.15;11.98;;;;;;;;;;6186543;28;20085;-81
2024/03/07 00:26:13;;;;;;;28.73;10.82;;;;;;;;;;6183287;28;20054;-79
2024/03/07 00:29:16;;;;;;;23.73;11.15;;;;;;;;;;6179865;28;20202;-80
2024/03/07 00:32:18;;;;;;;;;;;;;;;;;;6185186;28;20098;-81
2024/03/07 00:35:20;;;;;;;25.75;10.80;;;;;;;;;;6186094;28;19937;-82
2024/03/07 00:38:23;;;;;;;30.80;12.25;;;;;;;;;;6180951;28;20046;-79
2024/03/07 00:41:24;;;;;;;32.38;13.57;;;;;;;;;;6177941;28;20416;-82
2024/03/07 00:44:26;;;;;;;30.30;13.35;;;;;;;;;;6182171;28;20428;-82
2024/03/07 00:47:28;;;;;;;30.20;13.68;;;;;;;;;;6180955;28;20046;-82
2024/03/07 00:50:30;;;;;;;30.52;13.18;;;;;;;;;;6180388;28;20050;-79
2024/03/07 00:53:32;;;;;;;24.05;11.45;;;;;;;;;;6180474;28;20054;-80
2024/03/07 00:56:36;;;;;;;25.80;11.90;;;;;;;;;;6178219;28;20050;-83
2024/03/07 00:59:38;;;;;;;28.25;11.88;;;;;;;;;;6179272;28;20512;-79
2024/03/07 01:02:45;;;;;;;28.67;12.32;;;;;;;;;;6183947;28;20408;-80
2024/03/07 01:05:47;;;;;;;27.13;12.52;;;;;;;;;;6180015;28;20062;-80
2024/03/07 01:08:50;;;;;;;28.80;12.63;;;;;;;;;;6176882;28;20054;-82
2024/03/07 01:11:52;;;;;;;31.60;12.25;;;;;;;;;;6185615;28;20189;-82
2024/03/07 01:14:53;;;;;;;32.15;12.45;;;;;;;;;;6182279;28;20066;-83
2024/03/07 01:17:56;;;;;;;28.48;12.43;;;;;;;;;;6182445;28;20064;-82
2024/03/07 01:20:57;;;;;;;27.67;13.15;;;;;;;;;;6183004;28;20051;-79
2024/03/07 01:24:00;;;;;;;27.52;12.40;;;;;;;;;;6180701;28;20118;-81
2024/03/07 01:27:03;;;;;;;27.83;12.65;;;;;;;;;;6180795;28;20815;-81
2024/03/07 01:30:07;;;;;;;26.30;12.13;;;;;;;;;;6182120;28;20188;-82
2024/03/07 01:33:09;;;;;;;25.77;12.20;;;;;;;;;;6186076;28;20043;-82
2024/03/07 01:36:11;;;;;;;28.85;11.95;;;;;;;;;;6184422;28;20065;-79
2024/03/07 01:39:13;;;;;;;28.15;11.77;;;;;;;;;;6185640;28;20061;-82
2024/03/07 01:42:16;;;;;;;28.70;11.50;;;;;;;;;;6179648;28;20070;-80
2024/03/07 01:45:20;;;;;;;26.05;11.88;;;;;;;;;;6187963;28;20049;-81
2024/03/07 01:48:26;;;;;;;28.23;12.88;;;;;;;;;;6185008;28;20128;-80
2024/03/07 01:51:29;;;;;;;31.35;12.05;;;;;;;;;;6184156;28;20050;-82
2024/03/07 01:54:31;;;;;;;31.05;13.35;;;;;;;;;;6185641;28;20078;-81
2024/03/07 01:57:34;;;;;;;27.65;12.43;;;;;;;;;;6180543;28;20097;-82
2024/03/07 02:00:36;;;;;;;;;;;;;;;;;;6192927;28;20044;-80
2024/03/07 02:03:38;;;;;;;29.45;12.40;;;;;;;;;;6190844;28;19922;-81
2024/03/07 02:06:41;;;;;;;26.40;10.90;;;;;;;;;;6187791;28;20050;-80
2024/03/07 02:09:42;;;;;;;28.70;13.07;;;;;;;;;;6184974;28;20057;-79
2024/03/07 02:12:47;;;;;;;32.63;14.02;;;;;;;;;;6178762;28;20038;-82
2024/03/07 02:15:49;;;;;;;28.98;13.00;;;;;;;;;;6179718;28;20062;-82
2024/03/07 02:18:51;;;;;;;32.45;13.05;;;;;;;;;;6182707;28;20062;-79
2024/03/07 02:21:52;;;;;;;32.90;13.15;;;;;;;;;;6179223;28;20944;-81
2024/03/07 02:24:54;;;;;;;31.52;13.10;;;;;;;;;;6178199;28;20497;-77
2024/03/07 02:27:56;;;;;;;31.00;13.10;;;;;;;;;;6177608;28;20053;-80
2024/03/07 02:30:57;;;;;;;29.65;13.30;;;;;;;;;;6180188;28;20054;-81
2024/03/07 02:33:59;;;;;;;26.50;12.60;;;;;;;;;;6177317;28;20054;-82
2024/03/07 02:37:01;;;;;;;27.83;12.50;;;;;;;;;;6180751;28;20416;-80
2024/03/07 02:40:02;;;;;;;29.23;12.60;;;;;;;;;;6171069;28;20066;-79
2024/03/07 02:43:04;;;;;;;32.20;13.40;;;;;;;;;;6177490;28;20050;-78
2024/03/07 02:46:07;;;;;;;27.40;11.90;;;;;;;;;;6184679;28;20141;-80
2024/03/07 02:49:09;;;;;;;27.80;12.10;;;;;;;;;;6182476;28;20058;-79
2024/03/07 02:52:10;;;;;;;25.35;11.85;;;;;;;;;;6182005;28;20046;-81
2024/03/07 02:55:13;;;;;;;33.17;12.73;;;;;;;;;;6182139;28;20847;-81
2024/03/07 02:58:16;;;;;;;28.23;11.67;;;;;;;;;;6178483;28;20380;-83
2024/03/07 03:01:18;;;;;;;26.05;11.23;;;;;;;;;;6177507;28;20054;-79
2024/03/07 03:04:19;;;;;;;28.40;12.93;;;;;;;;;;6174340;28;20050;-80
2024/03/07 03:07:21;;;;;;;25.60;11.85;;;;;;;;;;6185738;28;20112;-80
2024/03/07 03:10:25;;;;;;;27.05;11.55;;;;;;;;;;6177902;28;20054;-82
2024/03/07 03:13:29;;;;;;;27.55;12.27;;;;;;;;;;6173812;28;20046;-82
2024/03/07 03:16:31;;;;;;;25.98;12.43;;;;;;;;;;6182351;28;20047;-81
2024/03/07 03:19:49;;;;;;;31.13;11.93;;;;;;;;;;6179772;28;20065;-82
2024/03/07 03:22:54;;;;;;;32.42;13.02;;;;;;;;;;6181053;28;20082;-82
2024/03/07 03:26:16;;;;;;;29.65;11.63;;;;;;;;;;6171709;28;20057;-82
2024/03/07 03:29:18;;;;;;;30.88;12.45;;;;;;;;;;6175929;28;20074;-82
2024/03/07 03:32:20;;;;;;;31.20;12.43;;;;;;;;;;6184749;28;20065;-78
2024/03/07 03:35:21;;;;;;;25.10;11.77;;;;;;;;;;6204649;28;20050;-77
2024/03/07 03:38:23;;;;;;;27.45;11.55;;;;;;;;;;6193970;28;20129;-81
2024/03/07 03:41:25;;;;;;;26.73;12.30;;;;;;;;;;6173703;28;20051;-79
2024/03/07 03:44:27;;;;;;;26.50;11.73;;;;;;;;;;6178706;28;20038;-81
2024/03/07 03:47:29;;;;;;;30.70;12.63;;;;;;;;;;6176794;28;20054;-82
2024/03/07 03:50:31;;;;;;;27.33;11.93;;;;;;;;;;6175723;28;20052;-80
2024/03/07 03:53:34;;;;;;;27.38;13.05;;;;;;;;;;6177844;28;20543;-82
2024/03/07 03:56:36;;;;;;;30.35;12.88;;;;;;;;;;6171844;28;20077;-79
2024/03/07 03:59:38;;;;;;;30.02;12.95;;;;;;;;;;6178166;28;20070;-79
2024/03/07 04:02:49;;;;;;;36.63;15.35;;;;;;;;;;6175554;28;20049;-77
2024/03/07 04:05:52;;;;;;;34.15;13.98;;;;;;;;;;6179183;28;20185;-81
2024/03/07 04:08:55;;;;;;;32.15;13.73;;;;;;;;;;6174996;28;20426;-82
2024/03/07 04:11:59;;;;;;;34.67;13.93;;;;;;;;;;6174958;28;20129;-81
2024/03/07 04:15:01;;;;;;;30.60;13.73;;;;;;;;;;6176940;28;20047;-79
2024/03/07 04:18:03;;;;;;;29.83;14.03;;;;;;;;;;6170300;28;20038;-79
2024/03/07 04:21:05;;;;;;;33.47;13.38;;;;;;;;;;6169622;28;20050;-80
2024/03/07 04:24:07;;;;;;;47.60;20.48;;;;;;;;;;6175648;28;20105;-80
2024/03/07 04:27:08;;;;;;;38.78;17.52;;;;;;;;;;6176629;28;20043;-82
2024/03/07 04:30:10;;;;;;;36.40;17.05;;;;;;;;;;6174346;28;20524;-80
2024/03/07 04:33:13;;;;;;;33.95;14.85;;;;;;;;;;6181263;28;20873;-79
2024/03/07 04:36:15;;;;;;;40.40;14.98;;;;;;;;;;6176303;28;20535;-80
2024/03/07 04:39:35;;;;;;;31.50;14.63;;;;;;;;;;6177830;28;20039;-82
2024/03/07 04:42:37;;;;;;;32.67;14.10;;;;;;;;;;6173845;28;20056;-81
2024/03/07 04:45:38;;;;;;;30.92;14.73;;;;;;;;;;6181032;28;20050;-81
2024/03/07 04:48:40;;;;;;;33.05;14.52;;;;;;;;;;6179052;28;20116;-79
2024/03/07 04:51:43;;;;;;;32.97;14.25;;;;;;;;;;6179639;28;20113;-79
2024/03/07 04:54:44;;;;;;;38.13;14.95;;;;;;;;;;6175388;28;20053;-81
2024/03/07 04:57:46;;;;;;;32.63;14.13;;;;;;;;;;6175420;28;20077;-80
2024/03/07 05:00:48;;;;;;;36.00;15.18;;;;;;;;;;6183814;28;20058;-80
2024/03/07 05:03:50;;;;;;;35.53;15.23;;;;;;;;;;6183965;28;20477;-83
2024/03/07 05:06:51;;;;;;;35.95;14.35;;;;;;;;;;6182183;28;20058;-82
2024/03/07 05:09:53;;;;;;;34.25;14.65;;;;;;;;;;6180408;28;20054;-81
2024/03/07 05:12:55;;;;;;;34.67;14.40;;;;;;;;;;6177333;28;20069;-79
2024/03/07 05:15:57;;;;;;;30.42;14.18;;;;;;;;;;6184744;28;20048;-81
2024/03/07 05:18:59;;;;;;;35.53;13.77;;;;;;;;;;6184557;28;20129;-81
2024/03/07 05:22:02;;;;;;;33.55;14.73;;;;;;;;;;6182271;28;20559;-82
2024/03/07 05:25:05;;;;;;;40.28;14.32;;;;;;;;;;6179610;28;20046;-81
2024/03/07 05:28:07;;;;;;;31.88;13.75;;;;;;;;;;6178659;28;20133;-82
2024/03/07 05:31:12;;;;;;;37.03;14.48;;;;;;;;;;6177873;28;20046;-82
2024/03/07 05:34:20;;;;;;;31.00;14.25;;;;;;;;;;6180404;28;20070;-80
2024/03/07 05:37:22;;;;;;;33.75;13.93;;;;;;;;;;6187342;28;20093;-83
2024/03/07 05:40:23;;;;;;;32.00;13.05;;;;;;;;;;6182075;28;20080;-83
2024/03/07 05:43:25;;;;;;;33.60;13.52;;;;;;;;;;6199215;28;20038;-78
2024/03/07 05:46:27;;;;;;;34.55;14.25;;;;;;;;;;6212048;28;20082;-78
2024/03/07 05:49:31;;;;;;;32.33;13.57;;;;;;;;;;6210967;28;20034;-77
2024/03/07 05:52:32;;;;;;;38.63;15.80;;;;;;;;;;6210207;28;20030;-78
2024/03/07 05:55:34;;;;;;;37.85;16.17;;;;;;;;;;6205518;28;20046;-82
2024/03/07 05:58:36;;;;;;;36.00;13.85;;;;;;;;;;6182864;28;20101;-82
2024/03/07 06:01:38;;;;;;;35.55;14.70;;;;;;;;;;6183087;28;20059;-80
2024/03/07 06:04:40;;;;;;;35.45;14.15;;;;;;;;;;6182438;28;20046;-81
2024/03/07 06:07:42;;;;;;;34.50;14.40;;;;;;;;;;6183274;28;20046;-81
2024/03/07 06:10:44;;;;;;;32.17;13.98;;;;;;;;;;6173947;28;20077;-81
2024/03/07 06:13:49;;;;;;;30.58;13.07;;;;;;;;;;6180386;28;20050;-82
2024/03/07 06:16:52;;;;;;;33.83;14.02;;;;;;;;;;6181527;28;20050;-82
2024/03/07 06:19:54;;;;;;;37.00;15.20;;;;;;;;;;6181512;28;20698;-81
2024/03/07 06:22:57;;;;;;;37.92;15.80;;;;;;;;;;6198589;28;20065;-83
2024/03/07 06:25:59;;;;;;;34.50;14.70;;;;;;;;;;6178294;28;20189;-83
2024/03/07 06:29:01;;;;;;;40.65;17.15;;;;;;;;;;6189518;28;20054;-82
2024/03/07 06:32:02;;;;;;;38.70;16.95;;;;;;;;;;6180926;28;20057;-81
2024/03/07 06:35:05;;;;;;;36.92;14.93;;;;;;;;;;6180840;28;20051;-82
2024/03/07 06:38:08;;;;;;;39.97;15.77;;;;;;;;;;6181040;28;20485;-82
2024/03/07 06:41:10;;;;;;;37.42;16.50;;;;;;;;;;6170244;28;20637;-82
2024/03/07 06:44:12;;;;;;;36.15;16.30;;;;;;;;;;6184284;28;20047;-81
2024/03/07 06:47:13;;;;;;;38.50;15.93;;;;;;;;;;6184789;28;20049;-85
2024/03/07 06:50:17;;;;;;;38.45;16.17;;;;;;;;;;6185263;28;20051;-81
2024/03/07 06:53:34;;;;;;;64.55;27.63;;;;;;;;;;6183329;28;20074;-80
2024/03/07 06:56:36;;;;;;;43.00;17.90;;;;;;;;;;6189011;28;20144;-83
2024/03/07 06:59:38;;;;;;;35.25;15.38;;;;;;;;;;6169650;28;20078;-81
2024/03/07 07:02:42;;;;;;;73.43;25.00;;;;;;;;;;6180303;28;20121;-80
2024/03/07 07:05:44;;;;;;;42.40;16.83;;;;;;;;;;6187575;28;20154;-83
2024/03/07 07:08:46;;;;;;;46.17;17.73;;;;;;;;;;6185748;28;20054;-83
2024/03/07 07:11:48;;;;;;;69.10;20.83;;;;;;;;;;6178369;28;20054;-81
2024/03/07 07:14:50;;;;;;;59.05;20.02;;;;;;;;;;6187366;28;20077;-81
2024/03/07 07:17:52;;;;;;;44.90;16.85;;;;;;;;;;6190375;28;20063;-83
2024/03/07 07:20:55;;;;;;;44.58;18.10;;;;;;;;;;6190297;28;20046;-84
2024/03/07 07:23:57;;;;;;;61.08;18.95;;;;;;;;;;6193410;28;20066;-80
2024/03/07 07:27:00;;;;;;;43.78;17.00;;;;;;;;;;6183500;28;20130;-82
2024/03/07 07:30:03;;;;;;;117.97;36.53;;;;;;;;;;6191470;28;20050;-79
2024/03/07 07:33:05;;;;;;;165.25;40.80;;;;;;;;;;6192189;28;20051;-78
2024/03/07 07:36:07;;;;;;;52.95;18.33;;;;;;;;;;6206941;28;20042;-79
2024/03/07 07:39:16;;;;;;;38.08;15.75;;;;;;;;;;6201219;28;20099;-81
2024/03/07 07:42:18;;;;;;;46.10;16.13;;;;;;;;;;6185795;28;20046;-83
2024/03/07 07:45:21;;;;;;;27.20;13.00;;;;;;;;;;6183992;28;20098;-80
2024/03/07 07:48:23;;;;;;;32.30;13.35;;;;;;;;;;6188849;28;20081;-81
2024/03/07 07:51:25;;;;;;;37.47;14.60;;;;;;;;;;6193830;28;20050;-81
2024/03/07 07:54:26;;;;;;;30.38;13.57;;;;;;;;;;6200434;28;20046;-80
2024/03/07 07:57:28;;;;;;;28.48;12.25;;;;;;;;;;6190046;28;20558;-80
2024/03/07 08:00:30;;;;;;;31.23;12.20;;;;;;;;;;6201815;28;20050;-79
2024/03/07 08:03:33;;;;;;;29.33;12.52;;;;;;;;;;6203798;28;20050;-82
2024/03/07 08:06:34;;;;;;;29.00;12.27;;;;;;;;;;6204510;28;20061;-79
2024/03/07 08:09:36;;;;;;;31.42;12.18;;;;;;;;;;6199010;28;20538;-81
2024/03/07 08:12:38;;;;;;;28.40;12.32;;;;;;;;;;6192456;28;20371;-83
2024/03/07 08:15:40;;;;;;;28.73;13.20;;;;;;;;;;6201368;28;20255;-83
2024/03/07 08:18:42;;;;;;;28.52;12.57;;;;;;;;;;6197205;28;20043;-85
2024/03/07 08:21:44;;;;;;;28.95;11.93;;;;;;;;;;6195358;28;20054;-81
2024/03/07 08:24:46;;;;;;;30.33;13.38;;;;;;;;;;6200985;28;20058;-83
2024/03/07 08:27:48;;;;;;;36.28;17.63;;;;;;;;;;6204365;28;20101;-81
2024/03/07 08:30:50;;;;;;;32.00;16.63;;;;;;;;;;6203461;28;20054;-82
2024/03/07 08:33:53;;;;;;;32.83;15.23;;;;;;;;;;6204225;28;20062;-80
2024/03/07 08:36:55;;;;;;;53.33;23.85;;;;;;;;;;6205441;28;20053;-82
2024/03/07 08:39:57;;;;;;;41.72;18.92;;;;;;;;;;6193576;28;20046;-83
2024/03/07 08:42:59;;;;;;;38.45;14.95;;;;;;;;;;6201312;28;20053;-82
2024/03/07 08:46:01;;;;;;;31.40;13.13;;;;;;;;;;6204838;28;20046;-81
2024/03/07 08:49:03;;;;;;;36.90;14.60;;;;;;;;;;6202184;28;20056;-82
2024/03/07 08:52:06;;;;;;;41.53;14.77;;;;;;;;;;6210451;28;20042;-81
2024/03/07 08:55:12;;;;;;;30.63;13.07;;;;;;;;;;6197260;28;20046;-83
2024/03/07 08:58:13;;;;;;;35.28;13.98;;;;;;;;;;6197253;28;20049;-83
2024/03/07 09:01:15;;;;;;;33.70;13.45;;;;;;;;;;6183198;28;20460;-84
2024/03/07 09:04:17;;;;;;;32.80;13.05;;;;;;;;;;6185714;28;20053;-83
2024/03/07 09:07:20;;;;;;;33.33;12.85;;;;;;;;;;6185598;28;20051;-85
2024/03/07 09:10:23;;;;;;;32.95;13.77;;;;;;;;;;6176871;28;20050;-85
2024/03/07 09:13:27;;;;;;;31.38;12.70;;;;;;;;;;6174299;28;20424;-83
2024/03/07 09:16:28;;;;;;;33.38;12.95;;;;;;;;;;6183915;28;20050;-83
2024/03/07 09:19:31;;;;;;;33.05;12.27;;;;;;;;;;6183001;28;20531;-84
2024/03/07 09:22:32;;;;;;;30.92;13.10;;;;;;;;;;6185869;28;20050;-85
2024/03/07 09:25:34;;;;;;;31.27;12.90;;;;;;;;;;6178166;28;20038;-84
2024/03/07 09:28:36;;;;;;;34.38;14.23;;;;;;;;;;6186279;28;20046;-84
2024/03/07 09:31:39;;;;;;;33.53;13.25;;;;;;;;;;6187137;28;20050;-83
2024/03/07 09:34:41;;;;;;;35.45;15.23;;;;;;;;;;6182368;28;20069;-84
2024/03/07 09:37:43;;;;;;;32.30;13.18;;;;;;;;;;6191209;28;20055;-83
2024/03/07 09:40:47;;;;;;;32.67;13.98;;;;;;;;;;6181129;28;20049;-85
2024/03/07 09:43:53;;;;;;;34.05;14.70;;;;;;;;;;6178859;28;20051;-83
2024/03/07 09:46:58;;;;;;;32.65;13.25;;;;;;;;;;6178898;28;20081;-84
2024/03/07 09:50:01;;;;;;;36.45;13.70;;;;;;;;;;6177932;28;20046;-82
2024/03/07 09:53:04;;;;;;;33.43;14.47;;;;;;;;;;6183326;28;20046;-82
2024/03/07 09:56:06;;;;;;;;;;;;;;;;;;6173180;28;20053;-82
2024/03/07 09:59:14;;;;;;;30.13;13.10;;;;;;;;;;6192379;28;19933;-81
2024/03/07 10:02:18;;;;;;;35.53;13.80;;;;;;;;;;6184486;28;20127;-83
2024/03/07 10:05:20;;;;;;;37.25;13.93;;;;;;;;;;6183774;28;20099;-83
2024/03/07 10:08:24;;;;;;;31.50;13.30;;;;;;;;;;6171331;28;20505;-83
2024/03/07 10:11:25;;;;;;;;;;;;;;;;;;6179128;28;20054;-81
2024/03/07 10:14:27;;;;;;;29.00;12.57;;;;;;;;;;6180237;28;19922;-84
2024/03/07 10:17:29;;;;;;;30.48;12.52;;;;;;;;;;6194387;28;20042;-83
2024/03/07 10:20:31;;;;;;;32.83;13.75;;;;;;;;;;6183486;28;20038;-84
2024/03/07 10:23:36;;;;;;;29.05;11.65;;;;;;;;;;6190146;28;20124;-82
2024/03/07 10:26:38;;;;;;;30.00;12.25;;;;;;;;;;6181775;28;20046;-83
2024/03/07 10:29:40;;;;;;;27.92;12.10;;;;;;;;;;6179769;28;20062;-83
2024/03/07 10:32:41;;;;;;;30.77;12.77;;;;;;;;;;6183465;28;20073;-84
2024/03/07 10:35:49;;;;;;;30.70;12.90;;;;;;;;;;6183690;28;20062;-81
2024/03/07 10:38:55;;;;;;;28.25;11.82;;;;;;;;;;6191021;28;20054;-84
2024/03/07 10:42:05;;;;;;;27.42;11.63;;;;;;;;;;6182784;28;20054;-82
2024/03/07 10:45:10;;;;;;;29.13;12.80;;;;;;;;;;6176087;28;20130;-83
2024/03/07 10:48:13;;;;;;;29.25;12.60;;;;;;;;;;6183260;28;20053;-85
2024/03/07 10:51:25;;;;;;;28.88;12.50;;;;;;;;;;6184372;28;20457;-84
2024/03/07 10:54:44;;;;;;;23.25;10.98;;;;;;;;;;6174036;28;20038;-83
2024/03/07 10:57:55;;;;;;;23.45;10.98;;;;;;;;;;6181001;28;20043;-82
2024/03/07 11:01:01;;;;;;;22.77;10.77;;;;;;;;;;6185267;28;20047;-84
2024/03/07 11:04:05;;;;;;;22.88;10.95;;;;;;;;;;6184673;28;20050;-82
2024/03/07 11:07:10;;;;;;;25.35;10.60;;;;;;;;;;6177243;28;20047;-83
2024/03/07 11:10:13;;;;;;;25.77;12.00;;;;;;;;;;6172672;28;20035;-83
2024/03/07 11:13:16;;;;;;;25.33;10.83;;;;;;;;;;6178297;28;20053;-84
2024/03/07 11:16:19;;;;;;;22.67;10.65;;;;;;;;;;6177162;28;20046;-86
2024/03/07 11:19:30;;;;;;;24.17;11.13;;;;;;;;;;6181125;28;20057;-84
2024/03/07 11:22:35;;;;;;;22.98;10.90;;;;;;;;;;6178310;28;20407;-84
2024/03/07 11:25:38;;;;;;;24.05;11.13;;;;;;;;;;6178259;28;20114;-84
2024/03/07 11:28:41;;;;;;;21.63;10.32;;;;;;;;;;6178772;28;20054;-83
2024/03/07 11:31:45;;;;;;;22.88;10.85;;;;;;;;;;6178078;28;20050;-82
2024/03/07 11:34:47;;;;;;;23.17;10.20;;;;;;;;;;6200422;28;20047;-81
2024/03/07 11:37:51;;;;;;;21.07;10.60;;;;;;;;;;6207498;28;20038;-84
2024/03/07 11:40:56;;;;;;;22.70;10.82;;;;;;;;;;6170140;28;20073;-84
2024/03/07 11:43:59;;;;;;;20.42;10.15;;;;;;;;;;6173217;28;20047;-85
2024/03/07 11:47:08;;;;;;;20.35;10.15;;;;;;;;;;6176788;28;20401;-86
2024/03/07 11:50:13;;;;;;;22.73;11.48;;;;;;;;;;6174215;28;20047;-80
2024/03/07 11:53:15;;;;;;;21.88;10.02;;;;;;;;;;6175228;28;21748;-82
2024/03/07 11:56:17;;;;;;;22.75;12.48;;;;;;;;;;6175498;28;20049;-84
2024/03/07 11:59:19;;;;;;;18.52;9.45;;;;;;;;;;6172480;28;20515;-85
2024/03/07 12:02:22;;;;;;;20.63;10.32;;;;;;;;;;6177216;28;20428;-84
2024/03/07 12:05:26;;;;;;;;;;;;;;;;;;6180334;28;20112;-84
2024/03/07 12:08:29;;;;;;;18.92;9.10;;;;;;;;;;6178258;28;20466;-83
2024/03/07 12:11:31;;;;;;;25.13;9.65;;;;;;;;;;6169580;28;20046;-84
2024/03/07 12:14:34;;;;;;;29.83;12.70;;;;;;;;;;6181017;28;20050;-82
2024/03/07 12:17:36;;;;;;;22.95;10.95;;;;;;;;;;6181717;28;20046;-83
2024/03/07 12:20:40;;;;;;;22.75;10.52;;;;;;;;;;6180577;28;20053;-82
2024/03/07 12:23:42;;;;;;;15.90;7.57;;;;;;;;;;6184090;28;20058;-83
2024/03/07 12:26:44;;;;;;;16.52;8.15;;;;;;;;;;6181758;28;20054;-82
2024/03/07 12:29:48;;;;;;;21.95;9.85;;;;;;;;;;6151877;28;20058;-82
2024/03/07 12:32:50;;;;;;;16.35;7.85;;;;;;;;;;6162047;28;20047;-83
2024/03/07 12:36:00;;;;;;;39.33;19.52;;;;;;;;;;6183899;28;20078;-83
2024/03/07 12:39:09;;;;;;;17.52;8.27;;;;;;;;;;6179574;28;20042;-83
2024/03/07 12:42:14;;;;;;;17.38;8.55;;;;;;;;;;6177467;28;20046;-83
2024/03/07 12:45:19;;;;;;;24.90;11.45;;;;;;;;;;6185455;28;20158;-84
2024/03/07 12:48:21;;;;;;;25.13;11.07;;;;;;;;;;6203493;28;20050;-82
2024/03/07 12:51:24;;;;;;;18.08;8.70;;;;;;;;;;6198736;28;20046;-82
2024/03/07 12:54:27;;;;;;;16.95;8.27;;;;;;;;;;6201520;28;20057;-82
2024/03/07 12:57:28;;;;;;;25.23;12.43;;;;;;;;;;6198686;28;20049;-84
2024/03/07 13:00:30;;;;;;;17.58;8.10;;;;;;;;;;6183874;28;20062;-85
2024/03/07 13:03:32;;;;;;;19.25;9.73;;;;;;;;;;6184885;28;20042;-83
2024/03/07 13:06:36;;;;;;;21.15;10.90;;;;;;;;;;6179988;28;20046;-84
2024/03/07 13:09:40;;;;;;;15.57;8.80;;;;;;;;;;6184663;28;20053;-81
2024/03/07 13:12:45;;;;;;;19.60;9.63;;;;;;;;;;6179609;28;20557;-84
2024/03/07 13:15:47;;;;;;;26.75;11.20;;;;;;;;;;6183357;28;20061;-83
2024/03/07 13:18:50;;;;;;;25.70;10.88;;;;;;;;;;6180426;28;20370;-83
2024/03/07 13:21:53;;;;;;;23.88;10.15;;;;;;;;;;6181814;28;20039;-83
2024/03/07 13:24:55;;;;;;;21.60;9.23;;;;;;;;;;6177011;28;20375;-85
2024/03/07 13:28:24;;;;;;;20.90;9.50;;;;;;;;;;6177428;28;20131;-83
2024/03/07 13:31:27;;;;;;;31.88;12.07;;;;;;;;;;6179315;28;20065;-82
2024/03/07 13:34:29;;;;;;;24.67;11.23;;;;;;;;;;6184324;28;20050;-82
2024/03/07 13:37:34;;;;;;;21.83;10.27;;;;;;;;;;6185300;28;20046;-83
2024/03/07 13:40:38;;;;;;;28.33;12.18;;;;;;;;;;6180356;28;20049;-82
2024/03/07 13:43:40;;;;;;;24.80;11.43;;;;;;;;;;6177423;28;20133;-83
2024/03/07 13:46:42;;;;;;;24.40;10.30;;;;;;;;;;6181155;28;20463;-83
2024/03/07 13:49:44;;;;;;;26.02;13.75;;;;;;;;;;6178618;28;20046;-85
2024/03/07 13:53:04;;;;;;;24.83;12.93;;;;;;;;;;6179441;28;20049;-85
2024/03/07 13:56:12;;;;;;;22.30;9.73;;;;;;;;;;6176169;28;20069;-83
2024/03/07 13:59:31;;;;;;;23.08;9.73;;;;;;;;;;6177217;28;20497;-83
2024/03/07 14:02:59;;;;;;;18.83;9.00;;;;;;;;;;6177993;28;20046;-82
2024/03/07 14:06:06;;;;;;;30.13;12.13;;;;;;;;;;6170294;28;20858;-83
2024/03/07 14:09:33;;;;;;;26.45;10.18;;;;;;;;;;6187415;28;20050;-84
2024/03/07 14:13:06;;;;;;;19.58;10.02;;;;;;;;;;6176306;28;20424;-84
2024/03/07 14:16:33;;;;;;;22.00;10.43;;;;;;;;;;6178023;28;20061;-82
2024/03/07 14:19:47;;;;;;;21.38;9.65;;;;;;;;;;6180822;28;20548;-82
2024/03/07 14:23:07;;;;;;;20.85;9.10;;;;;;;;;;6169372;28;20058;-83
2024/03/07 14:26:30;;;;;;;19.75;9.77;;;;;;;;;;6170007;28;20049;-82
2024/03/07 14:29:57;;;;;;;22.65;10.13;;;;;;;;;;6170856;28;20035;-84
2024/03/07 14:33:00;;;;;;;18.65;8.35;;;;;;;;;;6176736;28;20074;-83
2024/03/07 14:36:07;;;;;;;18.00;9.25;;;;;;;;;;6175631;28;20043;-81
2024/03/07 14:39:13;;;;;;;18.83;8.68;;;;;;;;;;6172660;28;20053;-81
2024/03/07 14:42:16;;;;;;;19.83;9.18;;;;;;;;;;6170834;28;20046;-83
2024/03/07 14:45:21;;;;;;;19.88;9.80;;;;;;;;;;6178952;28;20184;-83
2024/03/07 14:48:22;;;;;;;19.35;9.35;;;;;;;;;;6175469;28;20046;-83
2024/03/07 14:51:30;;;;;;;22.17;10.20;;;;;;;;;;6292181;27;1252597;-84
2024/03/07 14:54:40;;;;;;;23.90;10.18;;;;;;;;;;6307834;27;20080;-82
2024/03/07 14:57:42;;;;;;;23.92;10.20;;;;;;;;;;6303783;28;20039;-81
2024/03/07 15:00:45;;;;;;;24.45;10.57;;;;;;;;;;6320900;28;20051;-81
2024/03/07 15:03:59;;;;;;;27.67;11.02;;;;;;;;;;6307584;28;20047;-82
2024/03/07 15:07:02;;;;;;;73.63;30.25;;;;;;;;;;6321492;27;20056;-80
2024/03/07 15:10:09;;;;;;;36.95;15.20;;;;;;;;;;6307516;27;20048;-78
2024/03/07 15:13:12;;;;;;;26.20;13.60;;;;;;;;;;6325031;27;20054;-83
2024/03/07 15:16:14;;;;;;;24.52;11.13;;;;;;;;;;6326021;27;20075;-83
2024/03/07 15:19:34;;;;;;;31.08;14.20;;;;;;;;;;6322024;27;20101;-82
2024/03/07 15:22:36;;;;;;;;;;;;;;;;;;6312344;27;20058;-80
2024/03/07 15:25:38;;;;;;;31.00;14.75;;;;;;;;;;6321443;27;19931;-82
2024/03/07 15:28:40;;;;;;;31.85;14.25;;;;;;;;;;6308697;27;20044;-81
2024/03/07 15:31:41;;;;;;;42.45;23.67;;;;;;;;;;6315766;28;20040;-81
2024/03/07 15:34:43;;;;;;;26.50;12.88;;;;;;;;;;6329234;28;20032;-80
2024/03/07 15:37:48;;;;;;;21.80;9.93;;;;;;;;;;6307516;28;20052;-83
2024/03/07 15:41:00;;;;;;;23.23;10.70;;;;;;;;;;6307610;27;20052;-82
2024/03/07 15:44:02;;;;;;;20.77;9.85;;;;;;;;;;6317384;27;20031;-82
2024/03/07 15:47:06;;;;;;;22.98;11.30;;;;;;;;;;6319557;27;20043;-82
2024/03/07 15:50:11;;;;;;;19.55;9.60;;;;;;;;;;6311177;28;20040;-81
2024/03/07 15:53:14;;;;;;;28.05;14.75;;;;;;;;;;6296814;28;20040;-81
2024/03/07 15:56:16;;;;;;;21.42;10.25;;;;;;;;;;6305313;28;20055;-80
2024/03/07 15:59:19;;;;;;;25.52;10.43;;;;;;;;;;6307968;28;20044;-81
2024/03/07 16:02:21;;;;;;;29.02;14.68;;;;;;;;;;6286615;28;20048;-82
2024/03/07 16:05:28;;;;;;;22.40;10.48;;;;;;;;;;6279770;28;20040;-79
2024/03/07 16:08:30;;;;;;;19.42;11.02;;;;;;;;;;6275803;28;20093;-81
2024/03/07 16:11:32;;;;;;;20.85;11.35;;;;;;;;;;6292469;28;20040;-82
2024/03/07 16:14:34;;;;;;;25.13;11.57;;;;;;;;;;6300084;28;20048;-82
2024/03/07 16:17:36;;;;;;;21.80;10.05;;;;;;;;;;6298501;28;20048;-83
2024/03/07 16:20:39;;;;;;;22.05;10.27;;;;;;;;;;6300135;28;20048;-81
2024/03/07 16:23:40;;;;;;;24.02;10.23;;;;;;;;;;6280605;28;20056;-82
2024/03/07 16:26:43;;;;;;;20.52;9.55;;;;;;;;;;6302764;28;20048;-81
2024/03/07 16:29:48;;;;;;;19.15;10.43;;;;;;;;;;6286658;28;20155;-79
2024/03/07 16:32:59;;;;;;;21.73;9.90;;;;;;;;;;6292198;28;20044;-79
2024/03/07 16:36:01;;;;;;;18.50;10.15;;;;;;;;;;6301739;28;20063;-81
2024/03/07 16:39:07;;;;;;;26.05;10.40;;;;;;;;;;6293527;28;20063;-81
2024/03/07 16:42:14;;;;;;;24.63;9.98;;;;;;;;;;6293619;28;20048;-80
2024/03/07 16:45:25;;;;;;;21.65;9.98;;;;;;;;;;6297013;28;20044;-80
2024/03/07 16:48:28;;;;;;;21.50;9.95;;;;;;;;;;6298439;28;20106;-79
2024/03/07 16:51:30;;;;;;;21.55;9.25;;;;;;;;;;6315162;28;20048;-80
2024/03/07 16:54:35;;;;;;;19.58;9.32;;;;;;;;;;6279579;28;20051;-81
2024/03/07 16:57:38;;;;;;;20.75;9.75;;;;;;;;;;6307480;27;20668;-84
2024/03/07 17:00:42;;;;;;;18.70;8.98;;;;;;;;;;6308876;28;20169;-82
2024/03/07 17:03:45;;;;;;;19.60;10.13;;;;;;;;;;6301151;27;20191;-81
2024/03/07 17:06:47;;;;;;;17.67;9.43;;;;;;;;;;6297902;28;20701;-81
2024/03/07 17:09:48;;;;;;;18.83;9.45;;;;;;;;;;6297660;28;20059;-83
2024/03/07 17:12:51;;;;;;;20.17;9.75;;;;;;;;;;6321504;27;20051;-82
2024/03/07 17:15:56;;;;;;;18.92;10.15;;;;;;;;;;6303440;28;20047;-83
2024/03/07 17:18:58;;;;;;;18.02;9.77;;;;;;;;;;6284233;28;20528;-82
2024/03/07 17:21:59;;;;;;;20.65;10.23;;;;;;;;;;6275873;28;20131;-79
2024/03/07 17:25:05;;;;;;;22.98;10.95;;;;;;;;;;6290392;28;20519;-81
2024/03/07 17:28:06;;;;;;;19.10;10.98;;;;;;;;;;6289151;28;20040;-78
2024/03/07 17:31:10;;;;;;;26.92;13.68;;;;;;;;;;6300737;28;21161;-80
2024/03/07 17:34:13;;;;;;;18.60;11.57;;;;;;;;;;6303459;28;20044;-82
2024/03/07 17:37:16;;;;;;;20.98;10.90;;;;;;;;;;6306227;28;20417;-79
2024/03/07 17:40:20;;;;;;;19.02;10.50;;;;;;;;;;6300230;28;20063;-80
2024/03/07 17:43:22;;;;;;;21.63;10.70;;;;;;;;;;6308936;27;20059;-81
2024/03/07 17:46:26;;;;;;;20.42;11.25;;;;;;;;;;6308696;28;20059;-82
2024/03/07 17:49:28;;;;;;;21.98;11.23;;;;;;;;;;6305810;28;20397;-82
2024/03/07 17:52:30;;;;;;;21.58;11.27;;;;;;;;;;6312394;28;20519;-80
2024/03/07 17:55:32;;;;;;;31.00;14.50;;;;;;;;;;6299077;28;20055;-78